sensor_id;sensor_type;location;lat;lon;timestamp;P1;durP1;ratioP1;P2;durP2;ratioP2
19492;SDS011;9887;54.366;10.958;2023-12-29T00:02:07;11.50;;;2.95;;
19492;SDS011;9887;54.366;10.958;2023-12-29T00:04:35;12.07;;;2.42;;
19492;SDS011;9887;54.366;10.958;2023-12-29T00:07:03;10.65;;;3.08;;
19492;SDS011;9887;54.366;10.958;2023-12-29T00:09:31;10.32;;;2.25;;
19492;SDS011;9887;54.366;10.958;2023-12-29T00:12:05;12.30;;;2.45;;
19492;SDS011;9887;54.366;10.958;2023-12-29T00:14:33;10.73;;;2.50;;
19492;SDS011;9887;54.366;10.958;2023-12-29T00:17:05;9.45;;;2.33;;
19492;SDS011;9887;54.366;10.958;2023-12-29T00:19:33;9.10;;;2.25;;
19492;SDS011;9887;54.366;10.958;2023-12-29T00:22:01;7.47;;;1.88;;
19492;SDS011;9887;54.366;10.958;2023-12-29T00:24:30;8.57;;;1.65;;
19492;SDS011;9887;54.366;10.958;2023-12-29T00:26:58;9.10;;;2.20;;
19492;SDS011;9887;54.366;10.958;2023-12-29T00:29:27;10.20;;;2.75;;
19492;SDS011;9887;54.366;10.958;2023-12-29T00:31:59;12.85;;;2.72;;
19492;SDS011;9887;54.366;10.958;2023-12-29T00:34:31;7.57;;;2.25;;
19492;SDS011;9887;54.366;10.958;2023-12-29T00:36:59;11.18;;;2.13;;
19492;SDS011;9887;54.366;10.958;2023-12-29T00:39:28;8.10;;;2.22;;
19492;SDS011;9887;54.366;10.958;2023-12-29T00:41:58;8.75;;;1.98;;
19492;SDS011;9887;54.366;10.958;2023-12-29T00:44:26;8.00;;;2.42;;
19492;SDS011;9887;54.366;10.958;2023-12-29T00:46:54;5.97;;;1.80;;
19492;SDS011;9887;54.366;10.958;2023-12-29T00:49:22;10.93;;;2.10;;
19492;SDS011;9887;54.366;10.958;2023-12-29T00:51:51;8.13;;;1.85;;
19492;SDS011;9887;54.366;10.958;2023-12-29T00:54:19;7.47;;;1.75;;
19492;SDS011;9887;54.366;10.958;2023-12-29T00:56:48;9.48;;;1.67;;
19492;SDS011;9887;54.366;10.958;2023-12-29T00:59:17;7.80;;;1.63;;
19492;SDS011;9887;54.366;10.958;2023-12-29T01:01:46;7.47;;;1.60;;
19492;SDS011;9887;54.366;10.958;2023-12-29T01:04:14;6.10;;;1.63;;
19492;SDS011;9887;54.366;10.958;2023-12-29T01:06:43;7.78;;;2.40;;
19492;SDS011;9887;54.366;10.958;2023-12-29T01:09:13;7.65;;;1.48;;
19492;SDS011;9887;54.366;10.958;2023-12-29T01:11:41;4.82;;;1.65;;
19492;SDS011;9887;54.366;10.958;2023-12-29T01:14:09;5.47;;;1.55;;
19492;SDS011;9887;54.366;10.958;2023-12-29T01:16:37;5.35;;;1.40;;
19492;SDS011;9887;54.366;10.958;2023-12-29T01:19:05;5.68;;;1.23;;
19492;SDS011;9887;54.366;10.958;2023-12-29T01:21:33;10.63;;;2.25;;
19492;SDS011;9887;54.366;10.958;2023-12-29T01:24:01;9.75;;;1.60;;
19492;SDS011;9887;54.366;10.958;2023-12-29T01:26:32;7.80;;;1.98;;
19492;SDS011;9887;54.366;10.958;2023-12-29T01:29:04;4.55;;;1.40;;
19492;SDS011;9887;54.366;10.958;2023-12-29T01:31:32;6.78;;;1.60;;
19492;SDS011;9887;54.366;10.958;2023-12-29T01:34:01;6.45;;;1.50;;
19492;SDS011;9887;54.366;10.958;2023-12-29T01:36:29;6.07;;;1.35;;
19492;SDS011;9887;54.366;10.958;2023-12-29T01:38:57;7.72;;;1.48;;
19492;SDS011;9887;54.366;10.958;2023-12-29T01:41:25;7.18;;;1.70;;
19492;SDS011;9887;54.366;10.958;2023-12-29T01:44:18;8.55;;;2.20;;
19492;SDS011;9887;54.366;10.958;2023-12-29T01:46:48;5.57;;;1.85;;
19492;SDS011;9887;54.366;10.958;2023-12-29T01:49:17;7.78;;;1.30;;
19492;SDS011;9887;54.366;10.958;2023-12-29T01:51:52;6.13;;;1.50;;
19492;SDS011;9887;54.366;10.958;2023-12-29T01:54:23;6.47;;;1.40;;
19492;SDS011;9887;54.366;10.958;2023-12-29T01:56:54;5.05;;;1.63;;
19492;SDS011;9887;54.366;10.958;2023-12-29T01:59:25;4.55;;;1.50;;
19492;SDS011;9887;54.366;10.958;2023-12-29T02:01:54;7.53;;;1.55;;
19492;SDS011;9887;54.366;10.958;2023-12-29T02:04:23;7.03;;;1.60;;
19492;SDS011;9887;54.366;10.958;2023-12-29T02:06:52;4.88;;;1.45;;
19492;SDS011;9887;54.366;10.958;2023-12-29T02:09:21;4.03;;;1.50;;
19492;SDS011;9887;54.366;10.958;2023-12-29T02:11:49;4.53;;;1.30;;
19492;SDS011;9887;54.366;10.958;2023-12-29T02:14:17;7.43;;;1.40;;
19492;SDS011;9887;54.366;10.958;2023-12-29T02:16:50;6.20;;;1.95;;
19492;SDS011;9887;54.366;10.958;2023-12-29T02:19:25;4.72;;;1.55;;
19492;SDS011;9887;54.366;10.958;2023-12-29T02:22:04;5.07;;;1.75;;
19492;SDS011;9887;54.366;10.958;2023-12-29T02:24:33;3.70;;;1.75;;
19492;SDS011;9887;54.366;10.958;2023-12-29T02:27:05;4.47;;;1.45;;
19492;SDS011;9887;54.366;10.958;2023-12-29T02:29:40;4.97;;;1.40;;
19492;SDS011;9887;54.366;10.958;2023-12-29T02:32:13;5.70;;;1.45;;
19492;SDS011;9887;54.366;10.958;2023-12-29T02:34:45;4.78;;;1.30;;
19492;SDS011;9887;54.366;10.958;2023-12-29T02:37:15;5.18;;;1.40;;
19492;SDS011;9887;54.366;10.958;2023-12-29T02:39:44;3.15;;;1.10;;
19492;SDS011;9887;54.366;10.958;2023-12-29T02:42:13;5.93;;;1.17;;
19492;SDS011;9887;54.366;10.958;2023-12-29T02:44:41;6.55;;;1.63;;
19492;SDS011;9887;54.366;10.958;2023-12-29T02:47:09;4.75;;;1.33;;
19492;SDS011;9887;54.366;10.958;2023-12-29T02:49:37;5.95;;;1.30;;
19492;SDS011;9887;54.366;10.958;2023-12-29T02:52:05;5.05;;;1.13;;
19492;SDS011;9887;54.366;10.958;2023-12-29T02:54:33;5.13;;;1.10;;
19492;SDS011;9887;54.366;10.958;2023-12-29T02:57:01;5.30;;;1.02;;
19492;SDS011;9887;54.366;10.958;2023-12-29T02:59:30;5.97;;;1.35;;
19492;SDS011;9887;54.366;10.958;2023-12-29T03:01:58;5.57;;;1.77;;
19492;SDS011;9887;54.366;10.958;2023-12-29T03:04:27;9.02;;;1.52;;
19492;SDS011;9887;54.366;10.958;2023-12-29T03:06:55;8.93;;;2.53;;
19492;SDS011;9887;54.366;10.958;2023-12-29T03:09:23;6.75;;;1.80;;
19492;SDS011;9887;54.366;10.958;2023-12-29T03:11:51;6.15;;;1.80;;
19492;SDS011;9887;54.366;10.958;2023-12-29T03:14:19;10.40;;;2.20;;
19492;SDS011;9887;54.366;10.958;2023-12-29T03:16:48;12.00;;;2.25;;
19492;SDS011;9887;54.366;10.958;2023-12-29T03:19:16;10.70;;;2.17;;
19492;SDS011;9887;54.366;10.958;2023-12-29T03:21:44;9.65;;;2.05;;
19492;SDS011;9887;54.366;10.958;2023-12-29T03:24:12;7.45;;;2.20;;
19492;SDS011;9887;54.366;10.958;2023-12-29T03:26:40;6.07;;;2.20;;
19492;SDS011;9887;54.366;10.958;2023-12-29T03:29:08;8.85;;;1.73;;
19492;SDS011;9887;54.366;10.958;2023-12-29T03:31:37;8.82;;;1.75;;
19492;SDS011;9887;54.366;10.958;2023-12-29T03:34:07;6.38;;;1.80;;
19492;SDS011;9887;54.366;10.958;2023-12-29T03:36:35;5.43;;;1.55;;
19492;SDS011;9887;54.366;10.958;2023-12-29T03:39:03;6.95;;;1.60;;
19492;SDS011;9887;54.366;10.958;2023-12-29T03:41:30;9.45;;;1.80;;
19492;SDS011;9887;54.366;10.958;2023-12-29T03:43:58;4.63;;;1.40;;
19492;SDS011;9887;54.366;10.958;2023-12-29T03:46:26;4.20;;;1.10;;
19492;SDS011;9887;54.366;10.958;2023-12-29T03:48:56;5.75;;;1.42;;
19492;SDS011;9887;54.366;10.958;2023-12-29T03:51:25;6.50;;;1.40;;
19492;SDS011;9887;54.366;10.958;2023-12-29T03:53:53;9.20;;;1.77;;
19492;SDS011;9887;54.366;10.958;2023-12-29T03:56:21;7.60;;;1.92;;
19492;SDS011;9887;54.366;10.958;2023-12-29T03:58:49;8.00;;;1.77;;
19492;SDS011;9887;54.366;10.958;2023-12-29T04:01:17;9.20;;;1.88;;
19492;SDS011;9887;54.366;10.958;2023-12-29T04:03:46;8.68;;;1.80;;
19492;SDS011;9887;54.366;10.958;2023-12-29T04:06:14;7.03;;;1.50;;
19492;SDS011;9887;54.366;10.958;2023-12-29T04:08:43;7.53;;;1.80;;
19492;SDS011;9887;54.366;10.958;2023-12-29T04:11:11;11.05;;;1.88;;
19492;SDS011;9887;54.366;10.958;2023-12-29T04:13:39;7.13;;;1.90;;
19492;SDS011;9887;54.366;10.958;2023-12-29T04:16:07;11.15;;;2.33;;
19492;SDS011;9887;54.366;10.958;2023-12-29T04:18:35;10.80;;;2.25;;
19492;SDS011;9887;54.366;10.958;2023-12-29T04:21:03;8.75;;;1.90;;
19492;SDS011;9887;54.366;10.958;2023-12-29T04:23:31;7.20;;;1.80;;
19492;SDS011;9887;54.366;10.958;2023-12-29T04:26:00;9.85;;;2.00;;
19492;SDS011;9887;54.366;10.958;2023-12-29T04:28:28;9.50;;;2.00;;
19492;SDS011;9887;54.366;10.958;2023-12-29T04:30:56;8.63;;;1.98;;
19492;SDS011;9887;54.366;10.958;2023-12-29T04:33:24;6.72;;;1.85;;
19492;SDS011;9887;54.366;10.958;2023-12-29T04:35:52;10.70;;;2.28;;
19492;SDS011;9887;54.366;10.958;2023-12-29T04:38:20;14.27;;;2.15;;
19492;SDS011;9887;54.366;10.958;2023-12-29T04:40:47;7.70;;;1.88;;
19492;SDS011;9887;54.366;10.958;2023-12-29T04:43:17;8.25;;;2.00;;
19492;SDS011;9887;54.366;10.958;2023-12-29T04:45:44;8.32;;;1.88;;
19492;SDS011;9887;54.366;10.958;2023-12-29T04:48:12;9.65;;;1.98;;
19492;SDS011;9887;54.366;10.958;2023-12-29T04:50:40;9.75;;;2.03;;
19492;SDS011;9887;54.366;10.958;2023-12-29T04:53:08;8.43;;;1.90;;
19492;SDS011;9887;54.366;10.958;2023-12-29T04:55:36;6.43;;;1.63;;
19492;SDS011;9887;54.366;10.958;2023-12-29T04:58:04;8.90;;;1.80;;
19492;SDS011;9887;54.366;10.958;2023-12-29T05:00:33;10.73;;;1.70;;
19492;SDS011;9887;54.366;10.958;2023-12-29T05:03:01;6.25;;;1.52;;
19492;SDS011;9887;54.366;10.958;2023-12-29T05:05:29;8.15;;;2.08;;
19492;SDS011;9887;54.366;10.958;2023-12-29T05:07:57;9.48;;;1.70;;
19492;SDS011;9887;54.366;10.958;2023-12-29T05:10:26;6.63;;;1.88;;
19492;SDS011;9887;54.366;10.958;2023-12-29T05:12:53;13.02;;;1.90;;
19492;SDS011;9887;54.366;10.958;2023-12-29T05:15:21;9.60;;;1.80;;
19492;SDS011;9887;54.366;10.958;2023-12-29T05:17:51;6.95;;;1.60;;
19492;SDS011;9887;54.366;10.958;2023-12-29T05:20:19;7.45;;;1.70;;
19492;SDS011;9887;54.366;10.958;2023-12-29T05:22:47;10.57;;;1.88;;
19492;SDS011;9887;54.366;10.958;2023-12-29T05:25:15;8.52;;;1.70;;
19492;SDS011;9887;54.366;10.958;2023-12-29T05:27:42;9.30;;;2.10;;
19492;SDS011;9887;54.366;10.958;2023-12-29T05:30:11;6.15;;;1.63;;
19492;SDS011;9887;54.366;10.958;2023-12-29T05:32:40;10.20;;;1.52;;
19492;SDS011;9887;54.366;10.958;2023-12-29T05:35:09;9.95;;;1.88;;
19492;SDS011;9887;54.366;10.958;2023-12-29T05:37:37;8.35;;;2.05;;
19492;SDS011;9887;54.366;10.958;2023-12-29T05:40:05;6.90;;;1.55;;
19492;SDS011;9887;54.366;10.958;2023-12-29T05:42:34;6.72;;;1.80;;
19492;SDS011;9887;54.366;10.958;2023-12-29T05:45:02;9.32;;;2.00;;
19492;SDS011;9887;54.366;10.958;2023-12-29T05:47:30;6.72;;;1.48;;
19492;SDS011;9887;54.366;10.958;2023-12-29T05:49:58;7.43;;;1.67;;
19492;SDS011;9887;54.366;10.958;2023-12-29T05:52:27;12.45;;;1.40;;
19492;SDS011;9887;54.366;10.958;2023-12-29T05:54:56;8.45;;;1.60;;
19492;SDS011;9887;54.366;10.958;2023-12-29T05:57:23;6.25;;;1.40;;
19492;SDS011;9887;54.366;10.958;2023-12-29T05:59:51;8.43;;;1.90;;
19492;SDS011;9887;54.366;10.958;2023-12-29T06:02:19;7.55;;;1.50;;
19492;SDS011;9887;54.366;10.958;2023-12-29T06:04:47;8.18;;;1.42;;
19492;SDS011;9887;54.366;10.958;2023-12-29T06:07:15;10.38;;;1.48;;
19492;SDS011;9887;54.366;10.958;2023-12-29T06:09:44;8.65;;;1.65;;
19492;SDS011;9887;54.366;10.958;2023-12-29T06:12:13;10.48;;;2.15;;
19492;SDS011;9887;54.366;10.958;2023-12-29T06:14:40;8.38;;;1.70;;
19492;SDS011;9887;54.366;10.958;2023-12-29T06:17:08;10.30;;;2.13;;
19492;SDS011;9887;54.366;10.958;2023-12-29T06:19:36;14.20;;;2.53;;
19492;SDS011;9887;54.366;10.958;2023-12-29T06:22:04;11.80;;;2.20;;
19492;SDS011;9887;54.366;10.958;2023-12-29T06:24:32;6.63;;;1.90;;
19492;SDS011;9887;54.366;10.958;2023-12-29T06:27:02;12.30;;;1.60;;
19492;SDS011;9887;54.366;10.958;2023-12-29T06:29:30;9.57;;;1.65;;
19492;SDS011;9887;54.366;10.958;2023-12-29T06:31:58;8.82;;;1.98;;
19492;SDS011;9887;54.366;10.958;2023-12-29T06:34:25;8.68;;;1.70;;
19492;SDS011;9887;54.366;10.958;2023-12-29T06:36:53;11.00;;;2.55;;
19492;SDS011;9887;54.366;10.958;2023-12-29T06:39:21;9.00;;;2.25;;
19492;SDS011;9887;54.366;10.958;2023-12-29T06:41:50;9.48;;;1.90;;
19492;SDS011;9887;54.366;10.958;2023-12-29T06:44:19;10.93;;;2.10;;
19492;SDS011;9887;54.366;10.958;2023-12-29T06:46:47;11.43;;;2.05;;
19492;SDS011;9887;54.366;10.958;2023-12-29T06:49:15;7.60;;;1.63;;
19492;SDS011;9887;54.366;10.958;2023-12-29T06:51:43;7.15;;;1.73;;
19492;SDS011;9887;54.366;10.958;2023-12-29T06:54:12;8.23;;;1.65;;
19492;SDS011;9887;54.366;10.958;2023-12-29T06:56:39;11.23;;;2.00;;
19492;SDS011;9887;54.366;10.958;2023-12-29T06:59:07;9.38;;;1.90;;
19492;SDS011;9887;54.366;10.958;2023-12-29T07:01:39;8.30;;;2.03;;
19492;SDS011;9887;54.366;10.958;2023-12-29T07:04:07;12.35;;;2.40;;
19492;SDS011;9887;54.366;10.958;2023-12-29T07:06:36;9.60;;;1.95;;
19492;SDS011;9887;54.366;10.958;2023-12-29T07:09:04;12.93;;;2.28;;
19492;SDS011;9887;54.366;10.958;2023-12-29T07:11:34;10.07;;;2.40;;
19492;SDS011;9887;54.366;10.958;2023-12-29T07:14:02;13.43;;;2.47;;
19492;SDS011;9887;54.366;10.958;2023-12-29T07:16:30;9.85;;;2.25;;
19492;SDS011;9887;54.366;10.958;2023-12-29T07:18:59;14.20;;;2.58;;
19492;SDS011;9887;54.366;10.958;2023-12-29T07:21:27;13.15;;;2.60;;
19492;SDS011;9887;54.366;10.958;2023-12-29T07:23:55;13.23;;;2.25;;
19492;SDS011;9887;54.366;10.958;2023-12-29T07:26:23;13.43;;;2.60;;
19492;SDS011;9887;54.366;10.958;2023-12-29T07:28:50;14.55;;;2.35;;
19492;SDS011;9887;54.366;10.958;2023-12-29T07:31:20;12.82;;;2.90;;
19492;SDS011;9887;54.366;10.958;2023-12-29T07:33:48;13.60;;;2.53;;
19492;SDS011;9887;54.366;10.958;2023-12-29T07:36:18;14.80;;;3.05;;
19492;SDS011;9887;54.366;10.958;2023-12-29T07:38:46;13.35;;;2.80;;
19492;SDS011;9887;54.366;10.958;2023-12-29T07:41:13;12.48;;;2.53;;
19492;SDS011;9887;54.366;10.958;2023-12-29T07:43:41;14.70;;;2.30;;
19492;SDS011;9887;54.366;10.958;2023-12-29T07:46:09;15.88;;;2.50;;
19492;SDS011;9887;54.366;10.958;2023-12-29T07:48:37;16.88;;;3.67;;
19492;SDS011;9887;54.366;10.958;2023-12-29T07:51:06;12.05;;;2.80;;
19492;SDS011;9887;54.366;10.958;2023-12-29T07:53:35;15.55;;;3.22;;
19492;SDS011;9887;54.366;10.958;2023-12-29T07:56:03;12.88;;;2.33;;
19492;SDS011;9887;54.366;10.958;2023-12-29T07:58:31;11.93;;;2.85;;
19492;SDS011;9887;54.366;10.958;2023-12-29T08:00:59;16.90;;;3.17;;
19492;SDS011;9887;54.366;10.958;2023-12-29T08:03:27;14.40;;;3.10;;
19492;SDS011;9887;54.366;10.958;2023-12-29T08:05:55;14.55;;;2.50;;
19492;SDS011;9887;54.366;10.958;2023-12-29T08:08:23;11.30;;;2.38;;
19492;SDS011;9887;54.366;10.958;2023-12-29T08:10:52;12.80;;;2.63;;
19492;SDS011;9887;54.366;10.958;2023-12-29T08:13:20;13.90;;;2.53;;
19492;SDS011;9887;54.366;10.958;2023-12-29T08:15:48;13.20;;;2.50;;
19492;SDS011;9887;54.366;10.958;2023-12-29T08:18:16;15.75;;;2.85;;
19492;SDS011;9887;54.366;10.958;2023-12-29T08:20:44;10.52;;;2.72;;
19492;SDS011;9887;54.366;10.958;2023-12-29T08:23:12;18.02;;;3.80;;
19492;SDS011;9887;54.366;10.958;2023-12-29T08:25:40;12.77;;;2.97;;
19492;SDS011;9887;54.366;10.958;2023-12-29T08:28:09;17.30;;;3.00;;
19492;SDS011;9887;54.366;10.958;2023-12-29T08:30:38;19.73;;;2.88;;
19492;SDS011;9887;54.366;10.958;2023-12-29T08:33:07;13.88;;;3.00;;
19492;SDS011;9887;54.366;10.958;2023-12-29T08:35:34;11.52;;;2.58;;
19492;SDS011;9887;54.366;10.958;2023-12-29T08:38:03;16.95;;;3.20;;
19492;SDS011;9887;54.366;10.958;2023-12-29T08:40:31;16.58;;;3.33;;
19492;SDS011;9887;54.366;10.958;2023-12-29T08:42:59;21.23;;;3.85;;
19492;SDS011;9887;54.366;10.958;2023-12-29T08:45:29;14.23;;;3.00;;
19492;SDS011;9887;54.366;10.958;2023-12-29T08:47:56;15.63;;;2.67;;
19492;SDS011;9887;54.366;10.958;2023-12-29T08:50:25;16.60;;;3.17;;
19492;SDS011;9887;54.366;10.958;2023-12-29T08:52:53;13.45;;;2.85;;
19492;SDS011;9887;54.366;10.958;2023-12-29T08:55:21;17.35;;;3.22;;
19492;SDS011;9887;54.366;10.958;2023-12-29T08:57:49;15.95;;;2.95;;
19492;SDS011;9887;54.366;10.958;2023-12-29T09:00:17;15.40;;;3.20;;
19492;SDS011;9887;54.366;10.958;2023-12-29T09:02:46;17.17;;;4.18;;
19492;SDS011;9887;54.366;10.958;2023-12-29T09:05:14;18.45;;;3.72;;
19492;SDS011;9887;54.366;10.958;2023-12-29T09:07:42;11.68;;;2.75;;
19492;SDS011;9887;54.366;10.958;2023-12-29T09:10:10;15.55;;;3.95;;
19492;SDS011;9887;54.366;10.958;2023-12-29T09:12:39;16.67;;;3.55;;
19492;SDS011;9887;54.366;10.958;2023-12-29T09:15:07;13.95;;;2.75;;
19492;SDS011;9887;54.366;10.958;2023-12-29T09:17:36;11.02;;;2.55;;
19492;SDS011;9887;54.366;10.958;2023-12-29T09:20:06;13.30;;;3.13;;
19492;SDS011;9887;54.366;10.958;2023-12-29T09:22:37;15.57;;;2.45;;
19492;SDS011;9887;54.366;10.958;2023-12-29T09:25:05;17.02;;;3.30;;
19492;SDS011;9887;54.366;10.958;2023-12-29T09:27:33;12.73;;;3.25;;
19492;SDS011;9887;54.366;10.958;2023-12-29T09:30:01;16.35;;;3.10;;
19492;SDS011;9887;54.366;10.958;2023-12-29T09:32:30;16.38;;;3.33;;
19492;SDS011;9887;54.366;10.958;2023-12-29T09:34:58;16.15;;;3.00;;
19492;SDS011;9887;54.366;10.958;2023-12-29T09:37:28;13.45;;;2.60;;
19492;SDS011;9887;54.366;10.958;2023-12-29T09:39:55;14.35;;;3.00;;
19492;SDS011;9887;54.366;10.958;2023-12-29T09:42:23;15.60;;;2.75;;
19492;SDS011;9887;54.366;10.958;2023-12-29T09:44:54;16.58;;;3.00;;
19492;SDS011;9887;54.366;10.958;2023-12-29T09:47:22;18.45;;;3.35;;
19492;SDS011;9887;54.366;10.958;2023-12-29T09:49:52;15.93;;;3.10;;
19492;SDS011;9887;54.366;10.958;2023-12-29T09:52:21;15.10;;;3.17;;
19492;SDS011;9887;54.366;10.958;2023-12-29T09:54:51;15.15;;;3.17;;
19492;SDS011;9887;54.366;10.958;2023-12-29T09:57:20;14.15;;;3.35;;
19492;SDS011;9887;54.366;10.958;2023-12-29T09:59:49;16.20;;;2.78;;
19492;SDS011;9887;54.366;10.958;2023-12-29T10:02:18;15.95;;;3.13;;
19492;SDS011;9887;54.366;10.958;2023-12-29T10:04:48;10.80;;;2.50;;
19492;SDS011;9887;54.366;10.958;2023-12-29T10:07:18;14.13;;;2.90;;
19492;SDS011;9887;54.366;10.958;2023-12-29T10:09:54;17.60;;;4.65;;
19492;SDS011;9887;54.366;10.958;2023-12-29T10:12:25;19.58;;;5.40;;
19492;SDS011;9887;54.366;10.958;2023-12-29T10:14:57;22.27;;;5.70;;
19492;SDS011;9887;54.366;10.958;2023-12-29T10:17:36;16.48;;;4.70;;
19492;SDS011;9887;54.366;10.958;2023-12-29T10:20:14;12.70;;;4.55;;
19492;SDS011;9887;54.366;10.958;2023-12-29T10:22:51;18.40;;;3.70;;
19492;SDS011;9887;54.366;10.958;2023-12-29T10:25:23;16.38;;;3.22;;
19492;SDS011;9887;54.366;10.958;2023-12-29T10:27:51;17.38;;;3.53;;
19492;SDS011;9887;54.366;10.958;2023-12-29T10:30:20;14.95;;;3.80;;
19492;SDS011;9887;54.366;10.958;2023-12-29T10:32:59;17.75;;;3.60;;
19492;SDS011;9887;54.366;10.958;2023-12-29T10:35:31;19.73;;;3.08;;
19492;SDS011;9887;54.366;10.958;2023-12-29T10:38:10;17.92;;;3.47;;
19492;SDS011;9887;54.366;10.958;2023-12-29T10:40:40;17.55;;;2.90;;
19492;SDS011;9887;54.366;10.958;2023-12-29T10:43:10;12.68;;;2.63;;
19492;SDS011;9887;54.366;10.958;2023-12-29T10:45:38;15.55;;;2.75;;
19492;SDS011;9887;54.366;10.958;2023-12-29T10:48:06;15.40;;;2.97;;
19492;SDS011;9887;54.366;10.958;2023-12-29T10:50:42;19.08;;;3.55;;
19492;SDS011;9887;54.366;10.958;2023-12-29T10:53:11;18.45;;;2.90;;
19492;SDS011;9887;54.366;10.958;2023-12-29T10:55:40;12.75;;;2.88;;
19492;SDS011;9887;54.366;10.958;2023-12-29T10:58:08;17.33;;;3.03;;
19492;SDS011;9887;54.366;10.958;2023-12-29T11:00:36;20.88;;;3.22;;
19492;SDS011;9887;54.366;10.958;2023-12-29T11:03:04;12.80;;;2.85;;
19492;SDS011;9887;54.366;10.958;2023-12-29T11:05:33;18.63;;;3.25;;
19492;SDS011;9887;54.366;10.958;2023-12-29T11:08:01;16.63;;;2.90;;
19492;SDS011;9887;54.366;10.958;2023-12-29T11:10:43;10.85;;;2.42;;
19492;SDS011;9887;54.366;10.958;2023-12-29T11:13:12;14.10;;;2.90;;
19492;SDS011;9887;54.366;10.958;2023-12-29T11:15:45;14.98;;;2.70;;
19492;SDS011;9887;54.366;10.958;2023-12-29T11:18:14;15.27;;;3.38;;
19492;SDS011;9887;54.366;10.958;2023-12-29T11:20:43;11.18;;;2.47;;
19492;SDS011;9887;54.366;10.958;2023-12-29T11:23:12;14.73;;;2.65;;
19492;SDS011;9887;54.366;10.958;2023-12-29T11:25:41;14.65;;;2.95;;
19492;SDS011;9887;54.366;10.958;2023-12-29T11:28:13;17.30;;;2.95;;
19492;SDS011;9887;54.366;10.958;2023-12-29T11:30:41;14.10;;;2.92;;
19492;SDS011;9887;54.366;10.958;2023-12-29T11:33:10;14.93;;;2.72;;
19492;SDS011;9887;54.366;10.958;2023-12-29T11:35:45;15.05;;;2.97;;
19492;SDS011;9887;54.366;10.958;2023-12-29T11:38:27;16.80;;;2.92;;
19492;SDS011;9887;54.366;10.958;2023-12-29T11:41:08;21.02;;;2.95;;
19492;SDS011;9887;54.366;10.958;2023-12-29T11:43:41;17.48;;;3.55;;
19492;SDS011;9887;54.366;10.958;2023-12-29T11:46:18;14.57;;;3.50;;
19492;SDS011;9887;54.366;10.958;2023-12-29T11:49:00;21.92;;;3.38;;
19492;SDS011;9887;54.366;10.958;2023-12-29T11:51:31;17.30;;;3.45;;
19492;SDS011;9887;54.366;10.958;2023-12-29T11:54:00;17.73;;;3.17;;
19492;SDS011;9887;54.366;10.958;2023-12-29T11:56:33;15.57;;;3.00;;
19492;SDS011;9887;54.366;10.958;2023-12-29T11:59:12;16.40;;;3.25;;
19492;SDS011;9887;54.366;10.958;2023-12-29T12:01:46;12.25;;;3.05;;
19492;SDS011;9887;54.366;10.958;2023-12-29T12:07:03;15.82;;;3.05;;
19492;SDS011;9887;54.366;10.958;2023-12-29T12:09:31;13.77;;;3.00;;
19492;SDS011;9887;54.366;10.958;2023-12-29T12:12:03;12.95;;;2.58;;
19492;SDS011;9887;54.366;10.958;2023-12-29T12:14:44;17.80;;;3.05;;
19492;SDS011;9887;54.366;10.958;2023-12-29T12:17:25;13.73;;;2.60;;
19492;SDS011;9887;54.366;10.958;2023-12-29T12:19:58;11.45;;;2.50;;
19492;SDS011;9887;54.366;10.958;2023-12-29T12:22:29;17.00;;;3.25;;
19492;SDS011;9887;54.366;10.958;2023-12-29T12:25:03;16.50;;;3.50;;
19492;SDS011;9887;54.366;10.958;2023-12-29T12:27:33;15.63;;;2.65;;
19492;SDS011;9887;54.366;10.958;2023-12-29T12:30:05;14.15;;;2.90;;
19492;SDS011;9887;54.366;10.958;2023-12-29T12:32:36;22.17;;;4.70;;
19492;SDS011;9887;54.366;10.958;2023-12-29T12:35:05;16.75;;;3.78;;
19492;SDS011;9887;54.366;10.958;2023-12-29T12:37:44;16.33;;;2.75;;
19492;SDS011;9887;54.366;10.958;2023-12-29T12:40:23;15.20;;;2.55;;
19492;SDS011;9887;54.366;10.958;2023-12-29T12:42:53;14.57;;;3.15;;
19492;SDS011;9887;54.366;10.958;2023-12-29T12:45:21;11.77;;;2.72;;
19492;SDS011;9887;54.366;10.958;2023-12-29T12:47:50;12.07;;;3.28;;
19492;SDS011;9887;54.366;10.958;2023-12-29T12:50:21;12.48;;;2.92;;
19492;SDS011;9887;54.366;10.958;2023-12-29T12:52:49;21.23;;;3.10;;
19492;SDS011;9887;54.366;10.958;2023-12-29T12:55:18;15.32;;;3.03;;
19492;SDS011;9887;54.366;10.958;2023-12-29T12:57:46;11.65;;;2.40;;
19492;SDS011;9887;54.366;10.958;2023-12-29T13:00:16;18.90;;;3.10;;
19492;SDS011;9887;54.366;10.958;2023-12-29T13:02:44;14.50;;;3.35;;
19492;SDS011;9887;54.366;10.958;2023-12-29T13:05:15;12.10;;;2.28;;
19492;SDS011;9887;54.366;10.958;2023-12-29T13:07:44;13.43;;;2.83;;
19492;SDS011;9887;54.366;10.958;2023-12-29T13:10:12;14.43;;;2.83;;
19492;SDS011;9887;54.366;10.958;2023-12-29T13:12:40;15.70;;;2.42;;
19492;SDS011;9887;54.366;10.958;2023-12-29T13:15:20;12.63;;;2.05;;
19492;SDS011;9887;54.366;10.958;2023-12-29T13:17:49;12.80;;;1.95;;
19492;SDS011;9887;54.366;10.958;2023-12-29T13:20:18;10.68;;;2.03;;
19492;SDS011;9887;54.366;10.958;2023-12-29T13:22:46;7.95;;;1.92;;
19492;SDS011;9887;54.366;10.958;2023-12-29T13:25:17;7.75;;;1.60;;
19492;SDS011;9887;54.366;10.958;2023-12-29T13:27:47;9.00;;;2.20;;
19492;SDS011;9887;54.366;10.958;2023-12-29T13:30:15;8.77;;;1.75;;
19492;SDS011;9887;54.366;10.958;2023-12-29T13:32:46;11.35;;;1.70;;
19492;SDS011;9887;54.366;10.958;2023-12-29T13:35:17;7.63;;;1.50;;
19492;SDS011;9887;54.366;10.958;2023-12-29T13:37:50;10.32;;;2.10;;
19492;SDS011;9887;54.366;10.958;2023-12-29T13:40:22;12.90;;;2.10;;
19492;SDS011;9887;54.366;10.958;2023-12-29T13:42:55;12.43;;;2.13;;
19492;SDS011;9887;54.366;10.958;2023-12-29T13:45:27;10.10;;;2.03;;
19492;SDS011;9887;54.366;10.958;2023-12-29T13:47:57;10.52;;;2.00;;
19492;SDS011;9887;54.366;10.958;2023-12-29T13:50:26;11.43;;;1.92;;
19492;SDS011;9887;54.366;10.958;2023-12-29T13:52:54;7.20;;;1.77;;
19492;SDS011;9887;54.366;10.958;2023-12-29T13:55:23;9.52;;;1.50;;
19492;SDS011;9887;54.366;10.958;2023-12-29T13:57:51;5.70;;;1.60;;
19492;SDS011;9887;54.366;10.958;2023-12-29T14:00:20;12.25;;;2.60;;
19492;SDS011;9887;54.366;10.958;2023-12-29T14:03:01;13.45;;;2.40;;
19492;SDS011;9887;54.366;10.958;2023-12-29T14:05:35;11.10;;;2.42;;
19492;SDS011;9887;54.366;10.958;2023-12-29T14:08:08;10.60;;;2.00;;
19492;SDS011;9887;54.366;10.958;2023-12-29T14:10:43;10.40;;;1.83;;
19492;SDS011;9887;54.366;10.958;2023-12-29T14:13:12;11.00;;;2.05;;
19492;SDS011;9887;54.366;10.958;2023-12-29T14:15:41;9.68;;;2.03;;
19492;SDS011;9887;54.366;10.958;2023-12-29T14:18:29;9.45;;;2.03;;
19492;SDS011;9887;54.366;10.958;2023-12-29T14:21:21;11.00;;;2.63;;
19492;SDS011;9887;54.366;10.958;2023-12-29T14:24:00;12.43;;;2.38;;
19492;SDS011;9887;54.366;10.958;2023-12-29T14:26:30;11.45;;;2.40;;
19492;SDS011;9887;54.366;10.958;2023-12-29T14:29:01;8.95;;;2.30;;
19492;SDS011;9887;54.366;10.958;2023-12-29T14:31:31;14.93;;;2.72;;
19492;SDS011;9887;54.366;10.958;2023-12-29T14:34:02;12.40;;;2.75;;
19492;SDS011;9887;54.366;10.958;2023-12-29T14:36:31;20.35;;;2.70;;
19492;SDS011;9887;54.366;10.958;2023-12-29T14:38:59;12.82;;;2.33;;
19492;SDS011;9887;54.366;10.958;2023-12-29T14:41:27;14.48;;;3.53;;
19492;SDS011;9887;54.366;10.958;2023-12-29T14:43:55;13.77;;;2.70;;
19492;SDS011;9887;54.366;10.958;2023-12-29T14:46:23;17.08;;;2.70;;
19492;SDS011;9887;54.366;10.958;2023-12-29T14:48:51;17.17;;;2.78;;
19492;SDS011;9887;54.366;10.958;2023-12-29T14:51:21;15.25;;;2.72;;
19492;SDS011;9887;54.366;10.958;2023-12-29T14:53:49;16.40;;;3.50;;
19492;SDS011;9887;54.366;10.958;2023-12-29T14:56:17;14.55;;;3.55;;
19492;SDS011;9887;54.366;10.958;2023-12-29T14:58:45;15.63;;;3.08;;